createdAt,value
2023-05-13T00:00:40.911Z,35.00
2023-05-13T00:01:40.996Z,34.96
2023-05-13T00:02:41.097Z,35.00
2023-05-13T00:03:41.194Z,34.97
2023-05-13T00:04:41.117Z,34.97
2023-05-13T00:05:41.183Z,35.01
2023-05-13T00:06:41.270Z,34.98
2023-05-13T00:07:41.191Z,35.00
2023-05-13T00:08:41.224Z,35.01
2023-05-13T00:09:41.318Z,34.97
2023-05-13T00:10:41.368Z,35.01
2023-05-13T00:11:41.432Z,35.02
2023-05-13T00:12:41.481Z,34.97
2023-05-13T00:13:41.501Z,34.98
2023-05-13T00:14:41.584Z,35.02
2023-05-13T00:15:41.619Z,35.01
2023-05-13T00:16:41.789Z,35.03
2023-05-13T00:17:41.748Z,35.01
2023-05-13T00:18:41.847Z,35.03
2023-05-13T00:19:41.762Z,35.01
2023-05-13T00:20:41.773Z,35.00
2023-05-13T00:21:41.799Z,35.05
2023-05-13T00:22:41.818Z,35.01
2023-05-13T00:23:41.816Z,35.01
2023-05-13T00:24:41.825Z,35.05
2023-05-13T00:25:41.845Z,35.05
2023-05-13T00:26:41.848Z,35.06
2023-05-13T00:27:41.904Z,35.02
2023-05-13T00:28:41.887Z,35.02
2023-05-13T00:29:41.891Z,35.03
2023-05-13T00:30:41.896Z,35.04
2023-05-13T00:31:41.986Z,35.05
2023-05-13T00:32:41.942Z,35.03
2023-05-13T00:33:41.914Z,35.07
2023-05-13T00:34:41.961Z,35.02
2023-05-13T00:35:42.002Z,35.01
2023-05-13T00:36:42.034Z,34.98
2023-05-13T00:37:42.066Z,34.99
2023-05-13T00:38:42.078Z,35.01
2023-05-13T00:39:42.098Z,35.01
2023-05-13T00:40:42.113Z,35.04
2023-05-13T00:41:42.128Z,35.02
2023-05-13T00:42:42.146Z,35.02
2023-05-13T00:43:42.188Z,35.03
2023-05-13T00:44:42.214Z,35.01
2023-05-13T00:45:42.201Z,35.02
2023-05-13T00:46:42.209Z,35.04
2023-05-13T00:47:42.241Z,35.06
2023-05-13T00:48:42.248Z,35.02
2023-05-13T00:49:42.260Z,35.03
2023-05-13T00:50:42.280Z,35.02
2023-05-13T00:51:42.298Z,35.03
2023-05-13T00:52:42.318Z,35.04
2023-05-13T00:53:42.336Z,35.10
2023-05-13T00:54:42.351Z,35.04
2023-05-13T00:55:42.363Z,35.07
2023-05-13T00:56:42.397Z,35.07
2023-05-13T00:57:42.425Z,35.03
2023-05-13T00:58:42.457Z,35.04
2023-05-13T00:59:42.511Z,35.06
2023-05-13T01:00:42.507Z,35.07
2023-05-13T01:01:42.642Z,35.07
2023-05-13T01:02:42.660Z,35.04
2023-05-13T01:03:42.671Z,35.04
2023-05-13T01:04:42.659Z,35.06
2023-05-13T01:05:42.694Z,35.03
2023-05-13T01:06:42.715Z,35.08
2023-05-13T01:07:42.736Z,35.00
2023-05-13T01:08:42.787Z,35.06
2023-05-13T01:09:42.819Z,35.08
2023-05-13T01:10:42.846Z,35.04
2023-05-13T01:11:42.848Z,35.07
2023-05-13T01:12:42.887Z,35.04
2023-05-13T01:13:42.908Z,35.03
2023-05-13T01:14:42.907Z,35.04
2023-05-13T01:15:43.078Z,35.03
2023-05-13T01:16:42.986Z,35.06
2023-05-13T01:17:43.008Z,35.04
2023-05-13T01:18:43.024Z,35.00
2023-05-13T01:19:43.043Z,35.02
2023-05-13T01:20:43.060Z,35.07
2023-05-13T01:21:43.095Z,35.02
2023-05-13T01:22:43.101Z,35.03
2023-05-13T01:23:43.133Z,35.04
2023-05-13T01:24:43.202Z,35.06
2023-05-13T01:25:43.155Z,35.05
2023-05-13T01:26:43.205Z,35.12
2023-05-13T01:27:43.211Z,35.06
2023-05-13T01:28:43.262Z,35.03
2023-05-13T01:29:43.251Z,35.05
2023-05-13T01:30:43.296Z,35.04
2023-05-13T01:31:43.464Z,35.08
2023-05-13T01:32:43.403Z,35.04
2023-05-13T01:33:43.446Z,35.08
2023-05-13T01:34:43.497Z,35.04
2023-05-13T01:35:43.530Z,35.07
2023-05-13T01:36:43.558Z,35.06
2023-05-13T01:37:43.595Z,35.06
2023-05-13T01:38:43.618Z,35.06
2023-05-13T01:39:43.632Z,35.00
2023-05-13T01:40:43.646Z,35.08
2023-05-13T01:41:43.692Z,35.08
2023-05-13T01:42:43.702Z,35.04
2023-05-13T01:43:43.706Z,35.04
2023-05-13T01:44:43.722Z,35.06
2023-05-13T01:45:43.726Z,35.04
2023-05-13T01:46:43.729Z,35.06
2023-05-13T01:47:43.796Z,35.08
2023-05-13T01:48:43.747Z,35.04
2023-05-13T01:49:43.765Z,35.05
2023-05-13T01:50:43.775Z,35.04
2023-05-13T01:51:43.779Z,35.04
2023-05-13T01:52:43.807Z,35.05
2023-05-13T01:53:43.797Z,35.06
2023-05-13T01:54:43.816Z,35.00
2023-05-13T01:55:43.832Z,35.05
2023-05-13T01:56:43.836Z,35.03
2023-05-13T01:57:43.874Z,35.10
2023-05-13T01:58:43.914Z,35.10
2023-05-13T01:59:43.897Z,35.04
2023-05-13T02:00:43.901Z,35.08
2023-05-13T02:01:43.924Z,35.07
2023-05-13T02:02:43.977Z,35.04
2023-05-13T02:03:44.115Z,35.05
2023-05-13T02:04:43.928Z,35.02
2023-05-13T02:05:43.945Z,35.08
2023-05-13T02:06:43.947Z,35.06
2023-05-13T02:07:43.964Z,35.06
2023-05-13T02:08:43.962Z,35.05
2023-05-13T02:09:43.984Z,35.02
2023-05-13T02:10:43.978Z,35.02
2023-05-13T02:11:43.989Z,35.03
2023-05-13T02:12:43.999Z,35.03
2023-05-13T02:13:44.003Z,35.02
2023-05-13T02:14:44.033Z,35.05
2023-05-13T02:15:44.055Z,35.02
2023-05-13T02:16:44.054Z,35.05
2023-05-13T02:17:44.099Z,35.03
2023-05-13T02:18:44.114Z,35.03
2023-05-13T02:19:44.110Z,35.06
2023-05-13T02:20:44.102Z,35.05
2023-05-13T02:21:44.108Z,35.05
2023-05-13T02:22:44.177Z,35.07
2023-05-13T02:23:44.170Z,35.04
2023-05-13T02:24:44.148Z,35.03
2023-05-13T02:25:44.170Z,35.03
2023-05-13T02:26:44.177Z,35.03
2023-05-13T02:27:44.191Z,35.02
2023-05-13T02:28:44.209Z,35.05
2023-05-13T02:29:44.210Z,35.06
2023-05-13T02:30:44.228Z,35.03
2023-05-13T02:31:44.318Z,35.05
2023-05-13T02:32:44.355Z,35.07
2023-05-13T02:33:44.261Z,35.08
2023-05-13T02:34:44.299Z,35.02
2023-05-13T02:35:44.328Z,35.06
2023-05-13T02:36:44.328Z,35.05
2023-05-13T02:37:44.336Z,35.02
2023-05-13T02:38:44.345Z,35.03
2023-05-13T02:39:44.362Z,35.06
2023-05-13T02:40:44.379Z,35.05
2023-05-13T02:41:44.436Z,35.02
2023-05-13T02:42:44.399Z,35.06
2023-05-13T02:43:44.411Z,35.05
2023-05-13T02:44:44.437Z,35.06
2023-05-13T02:45:44.514Z,35.06
2023-05-13T02:46:44.475Z,35.02
2023-05-13T02:47:44.563Z,35.05
2023-05-13T02:48:44.492Z,35.01
2023-05-13T02:49:44.499Z,35.05
2023-05-13T02:50:44.522Z,35.08
2023-05-13T02:51:44.553Z,35.07
2023-05-13T02:52:44.554Z,35.02
2023-05-13T02:53:44.570Z,35.07
2023-05-13T02:54:44.621Z,35.06
2023-05-13T02:55:44.614Z,35.01
2023-05-13T02:56:44.620Z,35.06
2023-05-13T02:57:44.649Z,35.09
2023-05-13T02:58:44.668Z,35.07
2023-05-13T02:59:44.689Z,35.04
2023-05-13T03:00:44.695Z,35.09
2023-05-13T03:01:44.781Z,35.06
2023-05-13T03:02:44.791Z,35.06
2023-05-13T03:03:44.875Z,35.06
2023-05-13T03:04:44.762Z,35.05
2023-05-13T03:05:44.781Z,35.05
2023-05-13T03:06:44.789Z,35.02
2023-05-13T03:07:44.827Z,35.06
2023-05-13T03:08:44.835Z,35.03
2023-05-13T03:09:44.856Z,35.04
2023-05-13T03:10:44.865Z,35.06
2023-05-13T03:11:44.874Z,35.07
2023-05-13T03:12:44.888Z,35.08
2023-05-13T03:13:44.911Z,35.06
2023-05-13T03:14:44.924Z,35.06
2023-05-13T03:15:44.990Z,35.08
2023-05-13T03:16:44.956Z,35.05
2023-05-13T03:17:45.012Z,35.07
2023-05-13T03:18:45.064Z,35.04
2023-05-13T03:19:45.009Z,35.03
2023-05-13T03:20:45.026Z,35.05
2023-05-13T03:21:45.034Z,35.05
2023-05-13T03:22:45.054Z,35.08
2023-05-13T03:23:45.085Z,35.03
2023-05-13T03:24:45.075Z,35.06
2023-05-13T03:25:45.110Z,35.02
2023-05-13T03:26:45.111Z,35.08
2023-05-13T03:27:45.136Z,35.07
2023-05-13T03:28:45.143Z,35.04
2023-05-13T03:29:45.166Z,35.03
2023-05-13T03:30:45.169Z,35.05
2023-05-13T03:31:45.282Z,35.06
2023-05-13T03:32:45.229Z,35.01
2023-05-13T03:33:45.212Z,35.00
2023-05-13T03:34:45.224Z,35.06
2023-05-13T03:35:45.239Z,35.04
2023-05-13T03:36:45.257Z,35.07
2023-05-13T03:37:45.279Z,35.03
2023-05-13T03:38:45.295Z,35.07
2023-05-13T03:39:45.472Z,35.07
2023-05-13T03:40:45.346Z,35.06
2023-05-13T03:41:45.349Z,35.05
2023-05-13T03:42:45.366Z,35.04
2023-05-13T03:43:45.392Z,35.06
2023-05-13T03:44:45.407Z,35.05
2023-05-13T03:45:45.427Z,35.07
2023-05-13T03:46:45.513Z,35.03
2023-05-13T03:47:45.562Z,35.07
2023-05-13T03:48:45.473Z,35.05
2023-05-13T03:49:45.487Z,35.05
2023-05-13T03:50:45.508Z,35.04
2023-05-13T03:51:45.531Z,35.01
2023-05-13T03:52:46.974Z,35.06
2023-05-13T03:53:45.554Z,35.07
2023-05-13T03:54:45.557Z,35.01
2023-05-13T03:55:45.585Z,35.04
2023-05-13T03:56:45.565Z,35.06
2023-05-13T03:57:45.587Z,35.05
2023-05-13T03:58:45.627Z,35.05
2023-05-13T03:59:45.599Z,35.05
2023-05-13T04:00:45.587Z,35.06
2023-05-13T04:01:45.603Z,35.04
2023-05-13T04:02:45.760Z,35.08
2023-05-13T04:03:45.613Z,35.08
2023-05-13T04:04:45.708Z,35.07
2023-05-13T04:05:45.618Z,35.03
2023-05-13T04:06:45.624Z,35.06
2023-05-13T04:07:45.628Z,35.04
2023-05-13T04:08:45.688Z,35.05
2023-05-13T04:09:45.646Z,35.05
2023-05-13T04:10:45.669Z,35.04
2023-05-13T04:11:45.842Z,35.07
2023-05-13T04:12:45.705Z,35.00
2023-05-13T04:13:45.685Z,35.04
2023-05-13T04:14:45.695Z,35.04
2023-05-13T04:15:45.714Z,35.04
2023-05-13T04:16:45.764Z,35.04
2023-05-13T04:17:45.775Z,35.06
2023-05-13T04:18:45.745Z,35.01
2023-05-13T04:19:45.750Z,35.06
2023-05-13T04:20:45.762Z,35.07
2023-05-13T04:21:45.764Z,35.07
2023-05-13T04:22:45.794Z,35.08
2023-05-13T04:23:45.787Z,35.04
2023-05-13T04:24:45.805Z,35.04
2023-05-13T04:25:45.814Z,35.05
2023-05-13T04:26:45.827Z,35.04
2023-05-13T04:27:45.859Z,35.07
2023-05-13T04:28:45.856Z,35.07
2023-05-13T04:29:45.864Z,35.04
2023-05-13T04:30:45.870Z,35.04
2023-05-13T04:31:45.903Z,35.06
2023-05-13T04:32:46.329Z,35.05
2023-05-13T04:33:45.889Z,35.09
2023-05-13T04:34:45.891Z,35.05
2023-05-13T04:35:45.909Z,35.06
2023-05-13T04:36:45.913Z,35.12
2023-05-13T04:37:45.922Z,35.08
2023-05-13T04:38:45.927Z,35.11
2023-05-13T04:39:45.934Z,35.11
2023-05-13T04:40:45.951Z,35.09
2023-05-13T04:41:45.970Z,35.05
2023-05-13T04:42:45.968Z,35.06
2023-05-13T04:43:46.017Z,35.09
2023-05-13T04:44:45.979Z,35.04
2023-05-13T04:45:45.988Z,35.10
2023-05-13T04:46:46.085Z,35.06
2023-05-13T04:47:46.152Z,35.04
2023-05-13T04:48:46.016Z,35.02
2023-05-13T04:49:46.034Z,35.05
2023-05-13T04:50:46.060Z,35.05
2023-05-13T04:51:46.088Z,35.08
2023-05-13T04:52:46.106Z,35.08
2023-05-13T04:53:46.132Z,35.06
2023-05-13T04:54:46.168Z,35.05
2023-05-13T04:55:46.187Z,35.06
2023-05-13T04:56:46.227Z,35.09
2023-05-13T04:57:46.240Z,35.04
2023-05-13T04:58:46.268Z,35.13
2023-05-13T04:59:46.310Z,35.07
2023-05-13T05:00:46.306Z,35.09
2023-05-13T05:01:46.347Z,35.05
2023-05-13T05:02:46.420Z,35.08
2023-05-13T05:03:46.395Z,35.03
2023-05-13T05:04:46.399Z,35.09
2023-05-13T05:05:46.413Z,35.10
2023-05-13T05:06:46.449Z,35.10
2023-05-13T05:07:46.460Z,35.05
2023-05-13T05:08:46.499Z,35.12
2023-05-13T05:09:46.514Z,35.10
2023-05-13T05:10:46.544Z,35.08
2023-05-13T05:11:46.562Z,35.09
2023-05-13T05:12:46.583Z,35.05
2023-05-13T05:13:46.617Z,35.05
2023-05-13T05:14:46.641Z,35.08
2023-05-13T05:15:46.710Z,35.05
2023-05-13T05:16:46.701Z,35.09
2023-05-13T05:17:46.846Z,35.05
2023-05-13T05:18:46.890Z,35.08
2023-05-13T05:19:46.795Z,35.09
2023-05-13T05:20:46.809Z,35.09
2023-05-13T05:21:46.856Z,35.04
2023-05-13T05:22:46.876Z,35.08
2023-05-13T05:23:46.928Z,35.09
2023-05-13T05:24:46.948Z,35.08
2023-05-13T05:25:47.640Z,35.06
2023-05-13T05:26:47.072Z,35.06
2023-05-13T05:27:47.097Z,35.06
2023-05-13T05:28:47.204Z,35.09
2023-05-13T05:29:47.311Z,35.03
2023-05-13T05:30:47.190Z,35.08
2023-05-13T05:31:47.311Z,35.08
2023-05-13T05:32:47.357Z,35.06
2023-05-13T05:33:47.283Z,35.05
2023-05-13T05:34:47.307Z,35.04
2023-05-13T05:35:47.332Z,35.06
2023-05-13T05:36:47.367Z,35.10
2023-05-13T05:37:47.392Z,35.10
2023-05-13T05:38:47.427Z,35.10
2023-05-13T05:39:47.450Z,35.11
2023-05-13T05:40:47.475Z,35.12
2023-05-13T05:41:47.508Z,35.08
2023-05-13T05:42:47.546Z,35.10
2023-05-13T05:43:47.565Z,35.09
2023-05-13T05:44:47.617Z,35.05
2023-05-13T05:45:47.664Z,35.07
2023-05-13T05:46:47.642Z,35.07
2023-05-13T05:47:47.711Z,35.06
2023-05-13T05:48:47.690Z,35.11
2023-05-13T05:49:47.715Z,35.06
2023-05-13T05:50:47.741Z,35.06
2023-05-13T05:51:47.781Z,35.06
2023-05-13T05:52:47.811Z,35.10
2023-05-13T05:53:47.840Z,35.05
2023-05-13T05:54:47.866Z,35.11
2023-05-13T05:55:47.890Z,35.06
2023-05-13T05:56:47.920Z,35.08
2023-05-13T05:57:47.966Z,35.08
2023-05-13T05:58:47.992Z,35.05
2023-05-13T05:59:48.013Z,35.08
2023-05-13T06:00:48.044Z,35.10
2023-05-13T06:01:48.063Z,35.03
2023-05-13T06:02:48.205Z,35.07
2023-05-13T06:03:48.297Z,35.07
2023-05-13T06:04:48.380Z,35.10
2023-05-13T06:05:48.180Z,35.10
2023-05-13T06:06:48.204Z,35.10
2023-05-13T06:07:48.238Z,35.01
2023-05-13T06:08:48.234Z,35.07
2023-05-13T06:09:48.310Z,35.10
2023-05-13T06:10:48.294Z,35.04
2023-05-13T06:11:48.317Z,35.10
2023-05-13T06:12:48.340Z,35.07
2023-05-13T06:13:48.371Z,35.10
2023-05-13T06:14:48.396Z,35.08
2023-05-13T06:15:48.441Z,35.06
2023-05-13T06:16:48.456Z,35.11
2023-05-13T06:17:48.534Z,35.10
2023-05-13T06:18:48.525Z,35.10
2023-05-13T06:19:48.545Z,35.07
2023-05-13T06:20:48.561Z,35.10
2023-05-13T06:21:48.586Z,35.03
2023-05-13T06:22:48.614Z,35.11
2023-05-13T06:23:48.635Z,35.07
2023-05-13T06:24:48.655Z,35.06
2023-05-13T06:25:48.687Z,35.13
2023-05-13T06:26:48.704Z,35.03
2023-05-13T06:27:48.718Z,35.06
2023-05-13T06:28:48.765Z,35.03
2023-05-13T06:29:48.785Z,35.10
2023-05-13T06:30:48.809Z,35.07
2023-05-13T06:31:48.851Z,35.04
2023-05-13T06:33:00.288Z,35.06
2023-05-13T06:33:48.865Z,35.11
2023-05-13T06:34:48.865Z,35.08
2023-05-13T06:35:48.924Z,35.08
2023-05-13T06:36:48.903Z,35.06
2023-05-13T06:37:48.928Z,35.08
2023-05-13T06:38:48.942Z,35.06
2023-05-13T06:39:48.974Z,35.07
2023-05-13T06:40:48.951Z,35.13
2023-05-13T06:41:49.724Z,35.08
2023-05-13T06:42:48.973Z,35.10
2023-05-13T06:43:49.006Z,35.11
2023-05-13T06:44:49.039Z,35.02
2023-05-13T06:45:49.033Z,35.07
2023-05-13T06:46:49.054Z,35.04
2023-05-13T06:47:49.043Z,35.07
2023-05-13T06:48:49.058Z,35.04
2023-05-13T06:49:49.078Z,35.06
2023-05-13T06:50:49.043Z,35.08
2023-05-13T06:51:49.082Z,35.07
2023-05-13T06:52:49.079Z,35.10
2023-05-13T06:53:49.070Z,35.08
2023-05-13T06:54:49.130Z,35.07
2023-05-13T06:55:49.101Z,35.08
2023-05-13T06:56:49.143Z,35.11
2023-05-13T06:57:49.169Z,35.08
2023-05-13T06:58:49.166Z,35.06
2023-05-13T06:59:49.175Z,35.08
2023-05-13T07:00:49.206Z,35.07
2023-05-13T07:01:49.181Z,35.08
2023-05-13T07:02:49.237Z,35.07
2023-05-13T07:03:49.300Z,35.10
2023-05-13T07:04:49.178Z,35.14
2023-05-13T07:05:49.188Z,35.13
2023-05-13T07:06:49.245Z,35.08
2023-05-13T07:07:49.232Z,35.11
2023-05-13T07:08:49.209Z,35.06
2023-05-13T07:09:49.220Z,35.10
2023-05-13T07:10:49.239Z,35.10
2023-05-13T07:11:49.234Z,35.08
2023-05-13T07:12:49.258Z,35.10
2023-05-13T07:13:49.261Z,35.11
2023-05-13T07:14:49.252Z,35.10
2023-05-13T07:15:49.268Z,35.10
2023-05-13T07:16:49.284Z,35.10
2023-05-13T07:17:49.335Z,35.07
2023-05-13T07:18:49.333Z,35.12
2023-05-13T07:19:49.316Z,35.10
2023-05-13T07:20:49.336Z,35.07
2023-05-13T07:21:49.371Z,35.06
2023-05-13T07:22:49.390Z,35.07
2023-05-13T07:23:49.457Z,35.08
2023-05-13T07:24:49.448Z,35.12
2023-05-13T07:25:49.471Z,35.09
2023-05-13T07:26:49.492Z,35.10
2023-05-13T07:27:49.521Z,35.13
2023-05-13T07:28:49.548Z,35.10
2023-05-13T07:29:49.573Z,35.10
2023-05-13T07:30:49.624Z,35.08
2023-05-13T07:31:49.622Z,35.06
2023-05-13T07:32:50.570Z,35.10
2023-05-13T07:33:49.656Z,35.08
2023-05-13T07:34:49.644Z,35.10
2023-05-13T07:35:49.658Z,35.07
2023-05-13T07:36:49.666Z,35.08
2023-05-13T07:37:49.657Z,35.11
2023-05-13T07:38:49.677Z,35.05
2023-05-13T07:39:49.684Z,35.10
2023-05-13T07:40:49.664Z,35.06
2023-05-13T07:41:49.668Z,35.06
2023-05-13T07:42:49.670Z,35.06
2023-05-13T07:43:49.678Z,35.08
2023-05-13T07:44:49.682Z,35.08
2023-05-13T07:45:49.678Z,35.06
2023-05-13T07:46:49.733Z,35.12
2023-05-13T07:47:49.700Z,35.06
2023-05-13T07:48:49.692Z,35.08
2023-05-13T07:49:50.359Z,35.06
2023-05-13T07:50:50.431Z,35.09
2023-05-13T07:51:49.683Z,35.06
2023-05-13T07:52:49.663Z,35.04
2023-05-13T07:53:49.673Z,35.06
2023-05-13T07:54:49.656Z,35.10
2023-05-13T07:55:49.697Z,35.06
2023-05-13T07:56:49.698Z,35.04
2023-05-13T07:57:49.668Z,35.06
2023-05-13T07:58:49.665Z,35.04
2023-05-13T07:59:49.680Z,35.08
2023-05-13T08:00:49.671Z,35.09
2023-05-13T08:01:49.670Z,35.07
2023-05-13T08:02:49.789Z,35.08
2023-05-13T08:03:49.801Z,35.08
2023-05-13T08:04:49.723Z,35.05
2023-05-13T08:05:49.678Z,35.03
2023-05-13T08:06:49.683Z,35.08
2023-05-13T08:07:49.674Z,35.09
2023-05-13T08:08:49.677Z,35.04
2023-05-13T08:09:49.680Z,35.05
2023-05-13T08:10:49.688Z,35.07
2023-05-13T08:11:49.713Z,35.08
2023-05-13T08:12:49.699Z,35.08
2023-05-13T08:13:49.699Z,35.04
2023-05-13T08:14:49.704Z,35.05
2023-05-13T08:15:49.712Z,35.05
2023-05-13T08:16:49.778Z,35.04
2023-05-13T08:17:49.764Z,35.04
2023-05-13T08:18:49.801Z,35.08
2023-05-13T08:19:49.735Z,35.03
2023-05-13T08:20:49.762Z,35.05
2023-05-13T08:21:49.768Z,35.08
2023-05-13T08:22:49.775Z,35.05
2023-05-13T08:23:49.772Z,35.09
2023-05-13T08:24:49.784Z,35.09
2023-05-13T08:25:49.799Z,35.05
2023-05-13T08:26:49.805Z,35.01
2023-05-13T08:27:49.843Z,35.03
2023-05-13T08:28:52.172Z,35.08
2023-05-13T08:29:49.933Z,35.04
2023-05-13T08:30:49.928Z,35.04
2023-05-13T08:31:50.019Z,35.00
2023-05-13T08:32:50.007Z,35.08
2023-05-13T08:33:49.964Z,35.07
2023-05-13T08:34:49.996Z,35.07
2023-05-13T08:35:49.998Z,35.04
2023-05-13T08:36:50.054Z,35.07
2023-05-13T08:37:50.023Z,35.01
2023-05-13T08:38:50.041Z,35.07
2023-05-13T08:39:50.053Z,35.02
2023-05-13T08:40:50.074Z,35.04
2023-05-13T08:41:50.078Z,35.03
2023-05-13T08:42:50.092Z,35.06
2023-05-13T08:43:50.138Z,35.04
2023-05-13T08:44:50.129Z,35.06
2023-05-13T08:45:50.168Z,35.07
2023-05-13T08:46:50.156Z,35.01
2023-05-13T08:47:50.219Z,35.08
2023-05-13T08:48:50.203Z,35.03
2023-05-13T08:49:50.200Z,35.02
2023-05-13T08:50:50.208Z,35.07
2023-05-13T08:51:50.248Z,35.06
2023-05-13T08:52:50.241Z,35.06
2023-05-13T08:53:50.240Z,35.06
2023-05-13T08:54:50.269Z,35.07
2023-05-13T08:55:50.288Z,35.06
2023-05-13T08:56:50.302Z,35.03
2023-05-13T08:57:50.323Z,35.07
2023-05-13T08:58:50.330Z,35.02
2023-05-13T08:59:50.367Z,35.03
2023-05-13T09:00:50.372Z,35.01
2023-05-13T09:01:50.511Z,35.06
2023-05-13T09:02:50.416Z,35.06
2023-05-13T09:03:50.431Z,35.06
2023-05-13T09:04:50.467Z,35.03
2023-05-13T09:05:50.445Z,35.03
2023-05-13T09:06:50.456Z,35.05
2023-05-13T09:07:50.483Z,35.03
2023-05-13T09:08:50.483Z,35.02
2023-05-13T09:09:50.494Z,35.08
2023-05-13T09:10:50.508Z,35.05
2023-05-13T09:11:50.514Z,35.03
2023-05-13T09:12:50.529Z,35.03
2023-05-13T09:13:50.540Z,35.06
2023-05-13T09:14:50.553Z,35.06
2023-05-13T09:15:50.718Z,35.06
2023-05-13T09:16:50.572Z,35.05
2023-05-13T09:17:50.663Z,35.10
2023-05-13T09:18:50.659Z,35.02
2023-05-13T09:19:50.676Z,35.02
2023-05-13T09:20:50.628Z,35.03
2023-05-13T09:21:50.631Z,35.06
2023-05-13T09:22:50.649Z,35.07
2023-05-13T09:23:50.656Z,35.03
2023-05-13T09:24:50.666Z,35.05
2023-05-13T09:25:50.673Z,35.03
2023-05-13T09:26:50.685Z,35.05
2023-05-13T09:27:50.711Z,35.03
2023-05-13T09:28:50.717Z,35.06
2023-05-13T09:29:50.732Z,35.07
2023-05-13T09:30:50.759Z,35.07
2023-05-13T09:31:50.777Z,35.02
2023-05-13T09:32:50.803Z,35.05
2023-05-13T09:33:50.781Z,35.05
2023-05-13T09:34:50.793Z,35.05
2023-05-13T09:35:50.816Z,35.10
2023-05-13T09:36:51.348Z,35.09
2023-05-13T09:37:50.839Z,35.06
2023-05-13T09:38:50.856Z,35.03
2023-05-13T09:39:50.871Z,35.03
2023-05-13T09:40:50.882Z,35.05
2023-05-13T09:41:50.892Z,34.99
2023-05-13T09:42:50.908Z,35.04
2023-05-13T09:43:50.919Z,35.04
2023-05-13T09:44:51.373Z,35.03
2023-05-13T09:45:50.949Z,35.03
2023-05-13T09:46:51.020Z,35.05
2023-05-13T09:47:51.027Z,35.05
2023-05-13T09:48:50.976Z,35.04
2023-05-13T09:49:51.010Z,35.08
2023-05-13T09:50:51.026Z,35.06
2023-05-13T09:51:51.044Z,35.04
2023-05-13T09:52:51.052Z,35.04
2023-05-13T09:53:51.077Z,35.06
2023-05-13T09:54:51.118Z,35.06
2023-05-13T09:55:51.100Z,35.00
2023-05-13T09:56:51.107Z,35.01
2023-05-13T09:57:51.126Z,35.05
2023-05-13T09:58:51.171Z,35.04
2023-05-13T09:59:51.138Z,35.05
2023-05-13T10:00:51.295Z,35.02
2023-05-13T10:01:51.316Z,35.05
2023-05-13T10:02:51.868Z,35.01
2023-05-13T10:03:51.230Z,34.98
2023-05-13T10:04:51.176Z,35.02
2023-05-13T10:05:51.220Z,35.01
2023-05-13T10:06:51.213Z,35.01
2023-05-13T10:07:51.231Z,34.99
2023-05-13T10:08:51.272Z,35.01
2023-05-13T10:09:51.303Z,35.03
2023-05-13T10:10:51.326Z,34.99
2023-05-13T10:11:51.328Z,35.04
2023-05-13T10:12:51.341Z,35.00
2023-05-13T10:13:51.355Z,34.99
2023-05-13T10:14:51.389Z,35.03
2023-05-13T10:15:51.434Z,34.97
2023-05-13T10:16:51.529Z,34.97
2023-05-13T10:17:51.492Z,35.00
2023-05-13T10:18:51.533Z,34.99
2023-05-13T10:19:51.592Z,34.99
2023-05-13T10:20:51.623Z,35.02
2023-05-13T10:21:51.584Z,35.02
2023-05-13T10:22:51.636Z,34.99
2023-05-13T10:23:51.663Z,35.02
2023-05-13T10:24:51.692Z,34.98
2023-05-13T10:25:51.719Z,34.97
2023-05-13T10:26:51.729Z,34.94
2023-05-13T10:27:51.729Z,34.94
2023-05-13T10:28:51.760Z,35.01
2023-05-13T10:29:51.765Z,34.98
2023-05-13T10:30:51.889Z,34.95
2023-05-13T10:31:51.819Z,34.99
2023-05-13T10:32:51.848Z,34.98
2023-05-13T10:33:51.811Z,34.98
2023-05-13T10:34:51.824Z,34.98
2023-05-13T10:35:51.865Z,34.95
2023-05-13T10:36:51.881Z,34.99
2023-05-13T10:37:51.910Z,34.97
2023-05-13T10:38:51.963Z,34.94
2023-05-13T10:39:51.995Z,34.99
2023-05-13T10:40:52.075Z,34.95
2023-05-13T10:41:52.134Z,34.97
2023-05-13T10:42:52.154Z,34.94
2023-05-13T10:43:52.190Z,34.97
2023-05-13T10:44:52.248Z,34.99
2023-05-13T10:45:52.390Z,34.95
2023-05-13T10:46:52.519Z,34.94
2023-05-13T10:47:52.663Z,34.95
2023-05-13T10:48:52.531Z,34.97
2023-05-13T10:49:52.604Z,34.95
2023-05-13T10:50:52.794Z,34.93
2023-05-13T10:51:52.789Z,34.95
2023-05-13T10:52:52.810Z,34.94
2023-05-13T10:53:52.860Z,34.94
2023-05-13T10:54:52.921Z,35.00
2023-05-13T10:55:52.970Z,34.98
2023-05-13T10:56:53.030Z,34.98
2023-05-13T10:57:53.086Z,34.92
2023-05-13T10:58:53.143Z,34.96
2023-05-13T10:59:53.222Z,34.97
2023-05-13T11:00:53.304Z,34.93
2023-05-13T11:01:53.389Z,34.93
2023-05-13T11:02:53.531Z,34.95
2023-05-13T11:03:53.685Z,34.92
2023-05-13T11:04:53.619Z,34.95
2023-05-13T11:05:53.681Z,34.91
2023-05-13T11:06:53.751Z,34.98
2023-05-13T11:07:53.835Z,34.99
2023-05-13T11:08:55.905Z,34.95
2023-05-13T11:09:53.875Z,34.92
2023-05-13T11:10:53.892Z,34.93
2023-05-13T11:11:53.888Z,34.93
2023-05-13T11:12:53.886Z,34.99
2023-05-13T11:13:54.897Z,34.93
2023-05-13T11:14:53.901Z,34.95
2023-05-13T11:15:53.934Z,34.93
2023-05-13T11:16:53.916Z,34.97
2023-05-13T11:17:53.930Z,34.99
2023-05-13T11:18:53.992Z,34.96
2023-05-13T11:19:53.935Z,34.92
2023-05-13T11:20:53.991Z,34.96
2023-05-13T11:21:53.974Z,34.92
2023-05-13T11:22:54.056Z,34.96
2023-05-13T11:23:54.176Z,34.92
2023-05-13T11:24:54.192Z,34.92
2023-05-13T11:25:54.279Z,34.92
2023-05-13T11:26:54.363Z,34.92
2023-05-13T11:27:54.447Z,34.94
2023-05-13T11:28:54.523Z,34.96
2023-05-13T11:29:54.574Z,34.94
2023-05-13T11:30:54.644Z,34.94
2023-05-13T11:31:54.718Z,34.96
2023-05-13T11:32:54.825Z,34.95
2023-05-13T11:33:54.862Z,34.91
2023-05-13T11:34:54.930Z,34.92
2023-05-13T11:35:55.001Z,34.91
2023-05-13T11:36:55.072Z,34.91
2023-05-13T11:37:56.383Z,34.90
2023-05-13T11:38:55.155Z,34.96
2023-05-13T11:39:55.187Z,34.92
2023-05-13T11:40:55.161Z,34.88
2023-05-13T11:41:55.181Z,34.95
2023-05-13T11:42:55.180Z,34.95
2023-05-13T11:43:55.187Z,34.90
2023-05-13T11:44:55.195Z,34.91
2023-05-13T11:45:55.250Z,34.94
2023-05-13T11:46:55.218Z,34.92
2023-05-13T11:47:55.245Z,34.90
2023-05-13T11:48:55.227Z,34.87
2023-05-13T11:49:55.236Z,34.95
2023-05-13T11:50:55.246Z,34.90
2023-05-13T11:51:55.265Z,34.92
2023-05-13T11:52:55.264Z,34.86
2023-05-13T11:53:55.279Z,34.87
2023-05-13T11:54:55.270Z,34.90
2023-05-13T11:55:55.303Z,34.84
2023-05-13T11:56:55.311Z,34.87
2023-05-13T11:57:55.283Z,34.94
2023-05-13T11:58:55.290Z,34.87
2023-05-13T11:59:55.297Z,34.87
2023-05-13T12:00:55.299Z,34.86
2023-05-13T12:01:55.381Z,34.90
2023-05-13T12:02:55.559Z,34.89
2023-05-13T12:03:55.518Z,34.87
2023-05-13T12:04:55.630Z,34.87
2023-05-13T12:05:55.646Z,34.92
2023-05-13T12:06:56.414Z,34.86
2023-05-13T12:07:55.775Z,34.90
2023-05-13T12:08:55.838Z,34.86
2023-05-13T12:09:55.910Z,34.86
2023-05-13T12:10:55.987Z,34.86
2023-05-13T12:11:56.065Z,34.88
2023-05-13T12:12:56.116Z,34.90
2023-05-13T12:13:56.174Z,34.91
2023-05-13T12:14:56.245Z,34.84
2023-05-13T12:15:56.321Z,34.91
2023-05-13T12:16:56.405Z,34.86
2023-05-13T12:17:56.492Z,34.88
2023-05-13T12:18:56.654Z,34.86
2023-05-13T12:19:56.606Z,34.87
2023-05-13T12:20:56.660Z,34.88
2023-05-13T12:21:56.728Z,34.88
2023-05-13T12:22:56.944Z,34.86
2023-05-13T12:23:56.883Z,34.85
2023-05-13T12:24:56.935Z,34.88
2023-05-13T12:25:57.016Z,34.82
2023-05-13T12:26:57.090Z,34.88
2023-05-13T12:27:57.206Z,34.89
2023-05-13T12:28:57.217Z,34.92
2023-05-13T12:29:57.291Z,34.84
2023-05-13T12:30:57.459Z,34.89
2023-05-13T12:31:57.484Z,34.89
2023-05-13T12:32:57.537Z,34.89
2023-05-13T12:33:57.558Z,34.88
2023-05-13T12:34:57.628Z,34.88
2023-05-13T12:35:57.702Z,34.85
2023-05-13T12:36:57.828Z,34.89
2023-05-13T12:37:57.832Z,34.88
2023-05-13T12:39:00.159Z,34.86
2023-05-13T12:39:57.910Z,34.86
2023-05-13T12:40:57.957Z,34.88
2023-05-13T12:41:57.910Z,34.90
2023-05-13T12:42:57.921Z,34.88
2023-05-13T12:43:57.944Z,34.88
2023-05-13T12:44:57.919Z,34.89
2023-05-13T12:45:57.925Z,34.84
2023-05-13T12:46:58.062Z,34.86
2023-05-13T12:47:58.031Z,34.85
2023-05-13T12:48:57.939Z,34.89
2023-05-13T12:49:57.929Z,34.84
2023-05-13T12:50:59.630Z,34.88
2023-05-13T12:51:57.945Z,34.87
2023-05-13T12:52:58.063Z,34.89